sensor_id;sensor_type;location;lat;lon;timestamp;temperature;humidity
69261;DHT22;56378;52.404;20.816;2023-12-20T00:00:54;5.10;99.90
69261;DHT22;56378;52.404;20.816;2023-12-20T00:03:20;5.10;99.90
69261;DHT22;56378;52.404;20.816;2023-12-20T00:05:46;5.20;99.90
69261;DHT22;56378;52.404;20.816;2023-12-20T00:08:12;5.20;99.90
69261;DHT22;56378;52.404;20.816;2023-12-20T00:10:38;5.20;99.90
69261;DHT22;56378;52.404;20.816;2023-12-20T00:13:03;5.20;99.90
69261;DHT22;56378;52.404;20.816;2023-12-20T00:15:29;5.20;99.90
69261;DHT22;56378;52.404;20.816;2023-12-20T00:17:54;5.20;99.90
69261;DHT22;56378;52.404;20.816;2023-12-20T00:20:20;5.20;99.90
69261;DHT22;56378;52.404;20.816;2023-12-20T00:22:46;5.20;99.90
69261;DHT22;56378;52.404;20.816;2023-12-20T00:25:12;5.20;99.90
69261;DHT22;56378;52.404;20.816;2023-12-20T00:27:37;5.20;99.90
69261;DHT22;56378;52.404;20.816;2023-12-20T00:30:03;5.20;99.90
69261;DHT22;56378;52.404;20.816;2023-12-20T00:32:29;5.20;99.90
69261;DHT22;56378;52.404;20.816;2023-12-20T00:34:54;5.20;99.90
69261;DHT22;56378;52.404;20.816;2023-12-20T00:37:20;5.20;99.90
69261;DHT22;56378;52.404;20.816;2023-12-20T00:39:45;5.20;99.90
69261;DHT22;56378;52.404;20.816;2023-12-20T00:42:11;5.20;99.90
69261;DHT22;56378;52.404;20.816;2023-12-20T00:44:37;5.30;99.90
69261;DHT22;56378;52.404;20.816;2023-12-20T00:47:03;5.20;99.90
69261;DHT22;56378;52.404;20.816;2023-12-20T00:49:28;5.30;99.90
69261;DHT22;56378;52.404;20.816;2023-12-20T00:51:54;5.20;99.90
69261;DHT22;56378;52.404;20.816;2023-12-20T00:54:19;5.30;99.90
69261;DHT22;56378;52.404;20.816;2023-12-20T00:56:45;5.30;99.90
69261;DHT22;56378;52.404;20.816;2023-12-20T00:59:11;5.20;99.90
69261;DHT22;56378;52.404;20.816;2023-12-20T01:01:36;5.20;99.90
69261;DHT22;56378;52.404;20.816;2023-12-20T01:04:02;5.20;99.90
69261;DHT22;56378;52.404;20.816;2023-12-20T01:06:28;5.20;99.90
69261;DHT22;56378;52.404;20.816;2023-12-20T01:08:53;5.20;99.90
69261;DHT22;56378;52.404;20.816;2023-12-20T01:11:19;5.30;99.90
69261;DHT22;56378;52.404;20.816;2023-12-20T01:13:44;5.30;99.90
69261;DHT22;56378;52.404;20.816;2023-12-20T01:16:11;5.20;99.90
69261;DHT22;56378;52.404;20.816;2023-12-20T01:18:38;5.20;99.90
69261;DHT22;56378;52.404;20.816;2023-12-20T01:21:04;5.30;99.90
69261;DHT22;56378;52.404;20.816;2023-12-20T01:23:31;5.20;99.90
69261;DHT22;56378;52.404;20.816;2023-12-20T01:25:57;5.20;99.90
69261;DHT22;56378;52.404;20.816;2023-12-20T01:28:25;5.20;99.90
69261;DHT22;56378;52.404;20.816;2023-12-20T01:30:51;5.20;99.90
69261;DHT22;56378;52.404;20.816;2023-12-20T01:33:16;5.20;99.90
69261;DHT22;56378;52.404;20.816;2023-12-20T01:35:42;5.20;99.90
69261;DHT22;56378;52.404;20.816;2023-12-20T01:38:08;5.20;99.90
69261;DHT22;56378;52.404;20.816;2023-12-20T01:40:34;5.20;99.90
69261;DHT22;56378;52.404;20.816;2023-12-20T01:43:00;5.20;99.90
69261;DHT22;56378;52.404;20.816;2023-12-20T01:45:26;5.20;99.90
69261;DHT22;56378;52.404;20.816;2023-12-20T01:47:52;5.30;99.90
69261;DHT22;56378;52.404;20.816;2023-12-20T01:50:17;5.20;99.90
69261;DHT22;56378;52.404;20.816;2023-12-20T01:52:43;5.20;99.90
69261;DHT22;56378;52.404;20.816;2023-12-20T01:55:11;5.20;99.90
69261;DHT22;56378;52.404;20.816;2023-12-20T01:57:40;5.30;99.90
69261;DHT22;56378;52.404;20.816;2023-12-20T02:00:07;5.30;99.90
69261;DHT22;56378;52.404;20.816;2023-12-20T02:02:35;5.20;99.90
69261;DHT22;56378;52.404;20.816;2023-12-20T02:05:02;5.30;99.90
69261;DHT22;56378;52.404;20.816;2023-12-20T02:07:29;5.20;99.90
69261;DHT22;56378;52.404;20.816;2023-12-20T02:09:55;5.20;99.90
69261;DHT22;56378;52.404;20.816;2023-12-20T02:12:21;5.20;99.90
69261;DHT22;56378;52.404;20.816;2023-12-20T02:14:47;5.20;99.90
69261;DHT22;56378;52.404;20.816;2023-12-20T02:17:13;5.30;99.90
69261;DHT22;56378;52.404;20.816;2023-12-20T02:19:38;5.30;99.90
69261;DHT22;56378;52.404;20.816;2023-12-20T02:22:05;5.30;99.90
69261;DHT22;56378;52.404;20.816;2023-12-20T02:24:31;5.30;99.90
69261;DHT22;56378;52.404;20.816;2023-12-20T02:26:56;5.30;99.90
69261;DHT22;56378;52.404;20.816;2023-12-20T02:29:22;5.30;99.90
69261;DHT22;56378;52.404;20.816;2023-12-20T02:31:47;5.30;99.90
69261;DHT22;56378;52.404;20.816;2023-12-20T02:34:13;5.30;99.90
69261;DHT22;56378;52.404;20.816;2023-12-20T02:36:38;5.30;99.90
69261;DHT22;56378;52.404;20.816;2023-12-20T02:39:04;5.30;99.90
69261;DHT22;56378;52.404;20.816;2023-12-20T02:41:30;5.30;99.90
69261;DHT22;56378;52.404;20.816;2023-12-20T02:43:55;5.30;99.90
69261;DHT22;56378;52.404;20.816;2023-12-20T02:46:21;5.30;99.90
69261;DHT22;56378;52.404;20.816;2023-12-20T02:48:46;5.30;99.90
69261;DHT22;56378;52.404;20.816;2023-12-20T02:51:12;5.30;99.90
69261;DHT22;56378;52.404;20.816;2023-12-20T02:53:38;5.30;99.90
69261;DHT22;56378;52.404;20.816;2023-12-20T02:56:03;5.30;99.90
69261;DHT22;56378;52.404;20.816;2023-12-20T02:58:29;5.30;99.90
69261;DHT22;56378;52.404;20.816;2023-12-20T03:00:55;5.30;99.90
69261;DHT22;56378;52.404;20.816;2023-12-20T03:03:20;5.30;99.90
69261;DHT22;56378;52.404;20.816;2023-12-20T03:05:46;5.30;99.90
69261;DHT22;56378;52.404;20.816;2023-12-20T03:08:12;5.30;99.90
69261;DHT22;56378;52.404;20.816;2023-12-20T03:10:37;5.30;99.90
69261;DHT22;56378;52.404;20.816;2023-12-20T03:13:03;5.30;99.90
69261;DHT22;56378;52.404;20.816;2023-12-20T03:15:28;5.30;99.90
69261;DHT22;56378;52.404;20.816;2023-12-20T03:17:54;5.30;99.90
69261;DHT22;56378;52.404;20.816;2023-12-20T03:20:20;5.30;99.90
69261;DHT22;56378;52.404;20.816;2023-12-20T03:22:45;5.30;99.90
69261;DHT22;56378;52.404;20.816;2023-12-20T03:25:11;5.30;99.90
69261;DHT22;56378;52.404;20.816;2023-12-20T03:27:37;5.30;99.90
69261;DHT22;56378;52.404;20.816;2023-12-20T03:30:04;5.30;99.90
69261;DHT22;56378;52.404;20.816;2023-12-20T03:32:29;5.30;99.90
69261;DHT22;56378;52.404;20.816;2023-12-20T03:34:55;5.30;99.90
69261;DHT22;56378;52.404;20.816;2023-12-20T03:37:21;5.30;99.90
69261;DHT22;56378;52.404;20.816;2023-12-20T03:39:49;5.30;99.90
69261;DHT22;56378;52.404;20.816;2023-12-20T03:42:15;5.30;99.90
69261;DHT22;56378;52.404;20.816;2023-12-20T03:44:41;5.30;99.90
69261;DHT22;56378;52.404;20.816;2023-12-20T03:47:07;5.30;99.90
69261;DHT22;56378;52.404;20.816;2023-12-20T03:49:33;5.30;99.90
69261;DHT22;56378;52.404;20.816;2023-12-20T03:51:59;5.30;99.90
69261;DHT22;56378;52.404;20.816;2023-12-20T03:54:24;5.30;99.90
69261;DHT22;56378;52.404;20.816;2023-12-20T03:56:50;5.30;99.90
69261;DHT22;56378;52.404;20.816;2023-12-20T03:59:16;5.30;99.90
69261;DHT22;56378;52.404;20.816;2023-12-20T04:01:45;5.30;99.90
69261;DHT22;56378;52.404;20.816;2023-12-20T04:04:11;5.30;99.90
69261;DHT22;56378;52.404;20.816;2023-12-20T04:06:37;5.30;99.90
69261;DHT22;56378;52.404;20.816;2023-12-20T04:09:03;5.30;99.90
69261;DHT22;56378;52.404;20.816;2023-12-20T04:11:30;5.30;99.90
69261;DHT22;56378;52.404;20.816;2023-12-20T04:13:56;5.30;99.90
69261;DHT22;56378;52.404;20.816;2023-12-20T04:16:21;5.20;99.90
69261;DHT22;56378;52.404;20.816;2023-12-20T04:18:47;5.20;99.90
69261;DHT22;56378;52.404;20.816;2023-12-20T04:21:12;5.20;99.90
69261;DHT22;56378;52.404;20.816;2023-12-20T04:23:38;5.20;99.90
69261;DHT22;56378;52.404;20.816;2023-12-20T04:26:03;5.20;99.90
69261;DHT22;56378;52.404;20.816;2023-12-20T04:28:29;5.20;99.90
69261;DHT22;56378;52.404;20.816;2023-12-20T04:30:57;5.20;99.90
69261;DHT22;56378;52.404;20.816;2023-12-20T04:33:23;5.20;99.90
69261;DHT22;56378;52.404;20.816;2023-12-20T04:35:48;5.20;99.90
69261;DHT22;56378;52.404;20.816;2023-12-20T04:38:14;5.10;99.90
69261;DHT22;56378;52.404;20.816;2023-12-20T04:40:40;5.20;99.90
69261;DHT22;56378;52.404;20.816;2023-12-20T04:43:06;5.10;99.90
69261;DHT22;56378;52.404;20.816;2023-12-20T04:45:32;5.10;99.90
69261;DHT22;56378;52.404;20.816;2023-12-20T04:47:58;5.10;99.90
69261;DHT22;56378;52.404;20.816;2023-12-20T04:50:23;5.10;99.90
69261;DHT22;56378;52.404;20.816;2023-12-20T04:52:49;5.10;99.90
69261;DHT22;56378;52.404;20.816;2023-12-20T04:55:15;5.10;99.90
69261;DHT22;56378;52.404;20.816;2023-12-20T04:57:40;5.10;99.90
69261;DHT22;56378;52.404;20.816;2023-12-20T05:00:06;5.10;99.90
69261;DHT22;56378;52.404;20.816;2023-12-20T05:02:34;5.10;99.90
69261;DHT22;56378;52.404;20.816;2023-12-20T05:05:00;5.10;99.90
69261;DHT22;56378;52.404;20.816;2023-12-20T05:07:25;5.00;99.90
69261;DHT22;56378;52.404;20.816;2023-12-20T05:09:51;5.00;99.90
69261;DHT22;56378;52.404;20.816;2023-12-20T05:12:16;5.00;99.90
69261;DHT22;56378;52.404;20.816;2023-12-20T05:14:42;5.00;99.90
69261;DHT22;56378;52.404;20.816;2023-12-20T05:17:10;5.00;99.90
69261;DHT22;56378;52.404;20.816;2023-12-20T05:19:35;5.00;99.90
69261;DHT22;56378;52.404;20.816;2023-12-20T05:22:02;5.00;99.90
69261;DHT22;56378;52.404;20.816;2023-12-20T05:24:28;5.00;99.90
69261;DHT22;56378;52.404;20.816;2023-12-20T05:26:54;5.00;99.90
69261;DHT22;56378;52.404;20.816;2023-12-20T05:29:19;5.00;99.90
69261;DHT22;56378;52.404;20.816;2023-12-20T05:31:45;5.00;99.90
69261;DHT22;56378;52.404;20.816;2023-12-20T05:34:10;5.00;99.90
69261;DHT22;56378;52.404;20.816;2023-12-20T05:36:36;5.00;99.90
69261;DHT22;56378;52.404;20.816;2023-12-20T05:39:02;5.00;99.90
69261;DHT22;56378;52.404;20.816;2023-12-20T05:41:29;5.00;99.90
69261;DHT22;56378;52.404;20.816;2023-12-20T05:43:55;5.00;99.90
69261;DHT22;56378;52.404;20.816;2023-12-20T05:46:20;5.00;99.90
69261;DHT22;56378;52.404;20.816;2023-12-20T05:48:47;5.00;99.90
69261;DHT22;56378;52.404;20.816;2023-12-20T05:51:12;5.00;99.90
69261;DHT22;56378;52.404;20.816;2023-12-20T05:53:38;5.00;99.90
69261;DHT22;56378;52.404;20.816;2023-12-20T05:56:04;5.00;99.90
69261;DHT22;56378;52.404;20.816;2023-12-20T05:58:29;5.00;99.90
69261;DHT22;56378;52.404;20.816;2023-12-20T06:00:55;5.00;99.90
69261;DHT22;56378;52.404;20.816;2023-12-20T06:03:21;5.00;99.90
69261;DHT22;56378;52.404;20.816;2023-12-20T06:05:46;5.00;99.90
69261;DHT22;56378;52.404;20.816;2023-12-20T06:08:12;5.00;99.90
69261;DHT22;56378;52.404;20.816;2023-12-20T06:10:37;5.00;99.90
69261;DHT22;56378;52.404;20.816;2023-12-20T06:13:03;5.00;99.90
69261;DHT22;56378;52.404;20.816;2023-12-20T06:15:30;5.00;99.90
69261;DHT22;56378;52.404;20.816;2023-12-20T06:17:55;5.00;99.90
69261;DHT22;56378;52.404;20.816;2023-12-20T06:20:21;5.00;99.90
69261;DHT22;56378;52.404;20.816;2023-12-20T06:22:46;5.00;99.90
69261;DHT22;56378;52.404;20.816;2023-12-20T06:25:12;5.00;99.90
69261;DHT22;56378;52.404;20.816;2023-12-20T06:27:37;5.00;99.90
69261;DHT22;56378;52.404;20.816;2023-12-20T06:30:03;5.00;99.90
69261;DHT22;56378;52.404;20.816;2023-12-20T06:32:29;5.00;99.90
69261;DHT22;56378;52.404;20.816;2023-12-20T06:34:55;5.00;99.90
69261;DHT22;56378;52.404;20.816;2023-12-20T06:37:20;5.00;99.90
69261;DHT22;56378;52.404;20.816;2023-12-20T06:39:46;5.00;99.90
69261;DHT22;56378;52.404;20.816;2023-12-20T06:42:12;5.10;99.90
69261;DHT22;56378;52.404;20.816;2023-12-20T06:44:38;5.00;99.90
69261;DHT22;56378;52.404;20.816;2023-12-20T06:47:04;5.00;99.90
69261;DHT22;56378;52.404;20.816;2023-12-20T06:49:29;5.00;99.90
69261;DHT22;56378;52.404;20.816;2023-12-20T06:51:55;5.00;99.90
69261;DHT22;56378;52.404;20.816;2023-12-20T06:54:22;5.00;99.90
69261;DHT22;56378;52.404;20.816;2023-12-20T06:56:48;5.00;99.90
69261;DHT22;56378;52.404;20.816;2023-12-20T06:59:14;5.00;99.90
69261;DHT22;56378;52.404;20.816;2023-12-20T07:01:39;5.00;99.90
69261;DHT22;56378;52.404;20.816;2023-12-20T07:04:05;5.00;99.90
69261;DHT22;56378;52.404;20.816;2023-12-20T07:06:31;5.00;99.90
69261;DHT22;56378;52.404;20.816;2023-12-20T07:08:56;5.00;99.90
69261;DHT22;56378;52.404;20.816;2023-12-20T07:11:22;5.00;99.90
69261;DHT22;56378;52.404;20.816;2023-12-20T07:13:47;5.00;99.90
69261;DHT22;56378;52.404;20.816;2023-12-20T07:16:13;5.00;99.90
69261;DHT22;56378;52.404;20.816;2023-12-20T07:18:38;5.00;99.90
69261;DHT22;56378;52.404;20.816;2023-12-20T07:21:04;5.00;99.90
69261;DHT22;56378;52.404;20.816;2023-12-20T07:23:30;5.10;99.90
69261;DHT22;56378;52.404;20.816;2023-12-20T07:25:55;5.10;99.90
69261;DHT22;56378;52.404;20.816;2023-12-20T07:28:21;5.10;99.90
69261;DHT22;56378;52.404;20.816;2023-12-20T07:30:46;5.10;99.90
69261;DHT22;56378;52.404;20.816;2023-12-20T07:33:12;5.10;99.90
69261;DHT22;56378;52.404;20.816;2023-12-20T07:35:38;5.10;99.90
69261;DHT22;56378;52.404;20.816;2023-12-20T07:38:03;5.10;99.90
69261;DHT22;56378;52.404;20.816;2023-12-20T07:40:29;5.10;99.90
69261;DHT22;56378;52.404;20.816;2023-12-20T07:42:55;5.10;99.90
69261;DHT22;56378;52.404;20.816;2023-12-20T07:45:20;5.10;99.90
69261;DHT22;56378;52.404;20.816;2023-12-20T07:47:46;5.10;99.90
69261;DHT22;56378;52.404;20.816;2023-12-20T07:50:12;5.20;99.90
69261;DHT22;56378;52.404;20.816;2023-12-20T07:52:38;5.20;99.90
69261;DHT22;56378;52.404;20.816;2023-12-20T07:55:03;5.10;99.90
69261;DHT22;56378;52.404;20.816;2023-12-20T07:57:29;5.10;99.90
69261;DHT22;56378;52.404;20.816;2023-12-20T07:59:55;5.20;99.90
69261;DHT22;56378;52.404;20.816;2023-12-20T08:02:21;5.20;99.90
69261;DHT22;56378;52.404;20.816;2023-12-20T08:04:47;5.20;99.90
69261;DHT22;56378;52.404;20.816;2023-12-20T08:07:12;5.20;99.90
69261;DHT22;56378;52.404;20.816;2023-12-20T08:09:38;5.30;99.90
69261;DHT22;56378;52.404;20.816;2023-12-20T08:12:03;5.30;99.90
69261;DHT22;56378;52.404;20.816;2023-12-20T08:14:30;5.30;99.90
69261;DHT22;56378;52.404;20.816;2023-12-20T08:16:56;5.30;99.90
69261;DHT22;56378;52.404;20.816;2023-12-20T08:19:22;5.30;99.90
69261;DHT22;56378;52.404;20.816;2023-12-20T08:21:48;5.30;99.90
69261;DHT22;56378;52.404;20.816;2023-12-20T08:24:13;5.30;99.90
69261;DHT22;56378;52.404;20.816;2023-12-20T08:26:39;5.30;99.90
69261;DHT22;56378;52.404;20.816;2023-12-20T08:29:05;5.30;99.90
69261;DHT22;56378;52.404;20.816;2023-12-20T08:31:30;5.30;99.90
69261;DHT22;56378;52.404;20.816;2023-12-20T08:33:56;5.30;99.90
69261;DHT22;56378;52.404;20.816;2023-12-20T08:36:22;5.30;99.90
69261;DHT22;56378;52.404;20.816;2023-12-20T08:38:49;5.30;99.90
69261;DHT22;56378;52.404;20.816;2023-12-20T08:41:15;5.40;99.90
69261;DHT22;56378;52.404;20.816;2023-12-20T08:43:41;5.40;99.90
69261;DHT22;56378;52.404;20.816;2023-12-20T08:46:08;5.40;99.90
69261;DHT22;56378;52.404;20.816;2023-12-20T08:48:35;5.40;99.90
69261;DHT22;56378;52.404;20.816;2023-12-20T08:51:00;5.40;99.90
69261;DHT22;56378;52.404;20.816;2023-12-20T08:53:26;5.40;99.90
69261;DHT22;56378;52.404;20.816;2023-12-20T08:55:52;5.40;99.90
69261;DHT22;56378;52.404;20.816;2023-12-20T08:58:17;5.40;99.90
69261;DHT22;56378;52.404;20.816;2023-12-20T09:00:43;5.40;99.90
69261;DHT22;56378;52.404;20.816;2023-12-20T09:03:09;5.40;99.90
69261;DHT22;56378;52.404;20.816;2023-12-20T09:05:35;5.40;99.90
69261;DHT22;56378;52.404;20.816;2023-12-20T09:08:01;5.40;99.90
69261;DHT22;56378;52.404;20.816;2023-12-20T09:10:27;5.50;99.90
69261;DHT22;56378;52.404;20.816;2023-12-20T09:12:53;5.40;99.90
69261;DHT22;56378;52.404;20.816;2023-12-20T09:15:24;5.40;99.90
69261;DHT22;56378;52.404;20.816;2023-12-20T09:17:50;5.40;99.90
69261;DHT22;56378;52.404;20.816;2023-12-20T09:20:16;5.50;99.90
69261;DHT22;56378;52.404;20.816;2023-12-20T09:22:42;5.50;99.90
69261;DHT22;56378;52.404;20.816;2023-12-20T09:25:09;5.50;99.90
69261;DHT22;56378;52.404;20.816;2023-12-20T09:27:35;5.50;99.90
69261;DHT22;56378;52.404;20.816;2023-12-20T09:30:01;5.50;99.90
69261;DHT22;56378;52.404;20.816;2023-12-20T09:32:26;5.50;99.90
69261;DHT22;56378;52.404;20.816;2023-12-20T09:34:52;5.50;99.90
69261;DHT22;56378;52.404;20.816;2023-12-20T09:37:17;5.50;99.90
69261;DHT22;56378;52.404;20.816;2023-12-20T09:39:43;5.50;99.90
69261;DHT22;56378;52.404;20.816;2023-12-20T09:42:08;5.50;99.90
69261;DHT22;56378;52.404;20.816;2023-12-20T09:44:36;5.50;99.90
69261;DHT22;56378;52.404;20.816;2023-12-20T09:47:02;5.50;99.90
69261;DHT22;56378;52.404;20.816;2023-12-20T09:49:28;5.50;99.90
69261;DHT22;56378;52.404;20.816;2023-12-20T09:51:56;5.50;99.90
69261;DHT22;56378;52.404;20.816;2023-12-20T09:54:22;5.50;99.90
69261;DHT22;56378;52.404;20.816;2023-12-20T09:56:48;5.50;99.90
69261;DHT22;56378;52.404;20.816;2023-12-20T09:59:14;5.50;99.90
69261;DHT22;56378;52.404;20.816;2023-12-20T10:01:40;5.50;99.90
69261;DHT22;56378;52.404;20.816;2023-12-20T10:04:07;5.50;99.90
69261;DHT22;56378;52.404;20.816;2023-12-20T10:06:35;5.50;99.90
69261;DHT22;56378;52.404;20.816;2023-12-20T10:09:01;5.50;99.90
69261;DHT22;56378;52.404;20.816;2023-12-20T10:11:27;5.50;99.90
69261;DHT22;56378;52.404;20.816;2023-12-20T10:13:58;5.50;99.90
69261;DHT22;56378;52.404;20.816;2023-12-20T10:16:24;5.40;99.90
69261;DHT22;56378;52.404;20.816;2023-12-20T10:18:52;5.40;99.90
69261;DHT22;56378;52.404;20.816;2023-12-20T10:21:18;5.40;99.90
69261;DHT22;56378;52.404;20.816;2023-12-20T10:23:44;5.40;99.90
69261;DHT22;56378;52.404;20.816;2023-12-20T10:26:09;5.40;99.90
69261;DHT22;56378;52.404;20.816;2023-12-20T10:28:35;5.40;99.90
69261;DHT22;56378;52.404;20.816;2023-12-20T10:31:01;5.40;99.90
69261;DHT22;56378;52.404;20.816;2023-12-20T10:33:27;5.50;99.90
69261;DHT22;56378;52.404;20.816;2023-12-20T10:35:54;5.40;99.90
69261;DHT22;56378;52.404;20.816;2023-12-20T10:38:19;5.40;99.90
69261;DHT22;56378;52.404;20.816;2023-12-20T10:40:45;5.40;99.90
69261;DHT22;56378;52.404;20.816;2023-12-20T10:43:11;5.40;99.90
69261;DHT22;56378;52.404;20.816;2023-12-20T10:45:37;5.40;99.90
69261;DHT22;56378;52.404;20.816;2023-12-20T10:48:03;5.40;99.90
69261;DHT22;56378;52.404;20.816;2023-12-20T10:50:30;5.50;99.90
69261;DHT22;56378;52.404;20.816;2023-12-20T10:52:57;5.50;99.90
69261;DHT22;56378;52.404;20.816;2023-12-20T10:55:23;5.50;99.90
69261;DHT22;56378;52.404;20.816;2023-12-20T10:57:50;5.50;99.90
69261;DHT22;56378;52.404;20.816;2023-12-20T11:00:17;5.50;99.90
69261;DHT22;56378;52.404;20.816;2023-12-20T11:02:43;5.60;99.90
69261;DHT22;56378;52.404;20.816;2023-12-20T11:07:55;5.60;99.90
69261;DHT22;56378;52.404;20.816;2023-12-20T11:10:26;5.60;99.90
69261;DHT22;56378;52.404;20.816;2023-12-20T11:12:57;5.60;99.90
69261;DHT22;56378;52.404;20.816;2023-12-20T11:15:24;5.60;99.90
69261;DHT22;56378;52.404;20.816;2023-12-20T11:17:55;5.60;99.90
69261;DHT22;56378;52.404;20.816;2023-12-20T11:20:23;5.60;99.90
69261;DHT22;56378;52.404;20.816;2023-12-20T11:22:52;5.60;99.90
69261;DHT22;56378;52.404;20.816;2023-12-20T11:25:18;5.50;99.90
69261;DHT22;56378;52.404;20.816;2023-12-20T11:27:44;5.50;99.90
69261;DHT22;56378;52.404;20.816;2023-12-20T11:30:37;5.50;99.90
69261;DHT22;56378;52.404;20.816;2023-12-20T11:33:05;5.50;99.90
69261;DHT22;56378;52.404;20.816;2023-12-20T11:35:32;5.50;99.90
69261;DHT22;56378;52.404;20.816;2023-12-20T11:37:58;5.50;99.90
69261;DHT22;56378;52.404;20.816;2023-12-20T11:40:23;5.50;99.90
69261;DHT22;56378;52.404;20.816;2023-12-20T11:42:50;5.50;99.90
69261;DHT22;56378;52.404;20.816;2023-12-20T11:45:17;5.50;99.90
69261;DHT22;56378;52.404;20.816;2023-12-20T11:47:48;5.50;99.90
69261;DHT22;56378;52.404;20.816;2023-12-20T11:50:19;5.50;99.90
69261;DHT22;56378;52.404;20.816;2023-12-20T11:52:46;5.60;99.90
69261;DHT22;56378;52.404;20.816;2023-12-20T11:55:12;5.50;99.90
69261;DHT22;56378;52.404;20.816;2023-12-20T11:57:38;5.50;99.90
69261;DHT22;56378;52.404;20.816;2023-12-20T12:00:04;5.50;99.90
69261;DHT22;56378;52.404;20.816;2023-12-20T12:02:30;5.60;99.90
69261;DHT22;56378;52.404;20.816;2023-12-20T12:04:56;5.60;99.90
69261;DHT22;56378;52.404;20.816;2023-12-20T12:07:24;5.60;99.90
69261;DHT22;56378;52.404;20.816;2023-12-20T12:09:50;5.60;99.90
69261;DHT22;56378;52.404;20.816;2023-12-20T12:12:16;5.60;99.90
69261;DHT22;56378;52.404;20.816;2023-12-20T12:14:44;5.60;99.90
69261;DHT22;56378;52.404;20.816;2023-12-20T12:17:10;5.60;99.90
69261;DHT22;56378;52.404;20.816;2023-12-20T12:19:36;5.50;99.90
69261;DHT22;56378;52.404;20.816;2023-12-20T12:24:36;5.50;99.90
69261;DHT22;56378;52.404;20.816;2023-12-20T12:27:03;5.50;99.90
69261;DHT22;56378;52.404;20.816;2023-12-20T12:29:29;5.40;99.90
69261;DHT22;56378;52.404;20.816;2023-12-20T12:31:55;5.40;99.90
69261;DHT22;56378;52.404;20.816;2023-12-20T12:34:21;5.40;99.90
69261;DHT22;56378;52.404;20.816;2023-12-20T12:36:47;5.40;99.90
69261;DHT22;56378;52.404;20.816;2023-12-20T12:39:14;5.40;99.90
69261;DHT22;56378;52.404;20.816;2023-12-20T12:41:41;5.50;99.90
69261;DHT22;56378;52.404;20.816;2023-12-20T12:44:06;5.40;99.90
69261;DHT22;56378;52.404;20.816;2023-12-20T12:46:32;5.40;99.90
69261;DHT22;56378;52.404;20.816;2023-12-20T12:48:58;5.40;99.90
69261;DHT22;56378;52.404;20.816;2023-12-20T12:51:24;5.40;99.90
69261;DHT22;56378;52.404;20.816;2023-12-20T12:53:51;5.30;99.90
69261;DHT22;56378;52.404;20.816;2023-12-20T12:56:16;5.30;99.90
69261;DHT22;56378;52.404;20.816;2023-12-20T12:58:42;5.20;99.90
69261;DHT22;56378;52.404;20.816;2023-12-20T13:01:08;5.30;99.90
69261;DHT22;56378;52.404;20.816;2023-12-20T13:03:34;5.20;99.90
69261;DHT22;56378;52.404;20.816;2023-12-20T13:06:00;5.20;99.90
69261;DHT22;56378;52.404;20.816;2023-12-20T13:08:25;5.20;99.90
69261;DHT22;56378;52.404;20.816;2023-12-20T13:10:51;5.20;99.90
69261;DHT22;56378;52.404;20.816;2023-12-20T13:13:17;5.20;99.90
69261;DHT22;56378;52.404;20.816;2023-12-20T13:15:43;5.20;99.90
69261;DHT22;56378;52.404;20.816;2023-12-20T13:18:16;5.20;99.90
69261;DHT22;56378;52.404;20.816;2023-12-20T13:20:43;5.10;99.90
69261;DHT22;56378;52.404;20.816;2023-12-20T13:23:10;5.10;99.90
69261;DHT22;56378;52.404;20.816;2023-12-20T13:25:36;5.00;99.90
69261;DHT22;56378;52.404;20.816;2023-12-20T13:28:02;5.00;99.90
69261;DHT22;56378;52.404;20.816;2023-12-20T13:30:29;5.00;99.90
69261;DHT22;56378;52.404;20.816;2023-12-20T13:32:55;5.00;99.90
69261;DHT22;56378;52.404;20.816;2023-12-20T13:35:20;5.00;99.90
69261;DHT22;56378;52.404;20.816;2023-12-20T13:37:46;5.00;99.90
69261;DHT22;56378;52.404;20.816;2023-12-20T13:40:11;4.90;99.90
69261;DHT22;56378;52.404;20.816;2023-12-20T13:42:38;4.90;99.90
69261;DHT22;56378;52.404;20.816;2023-12-20T13:45:04;4.80;99.90
69261;DHT22;56378;52.404;20.816;2023-12-20T13:47:30;4.80;99.90
69261;DHT22;56378;52.404;20.816;2023-12-20T13:49:56;4.80;99.90
69261;DHT22;56378;52.404;20.816;2023-12-20T13:52:22;4.70;99.90
69261;DHT22;56378;52.404;20.816;2023-12-20T13:54:47;4.70;99.90
69261;DHT22;56378;52.404;20.816;2023-12-20T13:57:13;4.70;99.90
69261;DHT22;56378;52.404;20.816;2023-12-20T13:59:38;4.60;99.90
69261;DHT22;56378;52.404;20.816;2023-12-20T14:02:04;4.60;99.90
69261;DHT22;56378;52.404;20.816;2023-12-20T14:04:30;4.60;99.90
69261;DHT22;56378;52.404;20.816;2023-12-20T14:06:56;4.60;99.90
69261;DHT22;56378;52.404;20.816;2023-12-20T14:09:22;4.50;99.90
69261;DHT22;56378;52.404;20.816;2023-12-20T14:11:48;4.50;99.90
69261;DHT22;56378;52.404;20.816;2023-12-20T14:14:14;4.50;99.90
69261;DHT22;56378;52.404;20.816;2023-12-20T14:16:39;4.50;99.90
69261;DHT22;56378;52.404;20.816;2023-12-20T14:19:05;4.50;99.90
69261;DHT22;56378;52.404;20.816;2023-12-20T14:21:33;4.50;99.90
69261;DHT22;56378;52.404;20.816;2023-12-20T14:23:58;4.50;99.90
69261;DHT22;56378;52.404;20.816;2023-12-20T14:26:24;4.50;99.90
69261;DHT22;56378;52.404;20.816;2023-12-20T14:28:49;4.40;99.90
69261;DHT22;56378;52.404;20.816;2023-12-20T14:31:15;4.40;99.90
69261;DHT22;56378;52.404;20.816;2023-12-20T14:33:41;4.40;99.90
69261;DHT22;56378;52.404;20.816;2023-12-20T14:36:07;4.40;99.90
69261;DHT22;56378;52.404;20.816;2023-12-20T14:38:33;4.40;99.90
69261;DHT22;56378;52.404;20.816;2023-12-20T14:40:59;4.40;99.90
69261;DHT22;56378;52.404;20.816;2023-12-20T14:43:25;4.40;99.90
69261;DHT22;56378;52.404;20.816;2023-12-20T14:45:51;4.40;99.90
69261;DHT22;56378;52.404;20.816;2023-12-20T14:48:18;4.30;99.90
69261;DHT22;56378;52.404;20.816;2023-12-20T14:50:44;4.40;99.90
69261;DHT22;56378;52.404;20.816;2023-12-20T14:53:09;4.40;99.90
69261;DHT22;56378;52.404;20.816;2023-12-20T14:55:35;4.30;99.90
69261;DHT22;56378;52.404;20.816;2023-12-20T14:58:01;4.30;99.90
69261;DHT22;56378;52.404;20.816;2023-12-20T15:00:26;4.20;99.90
69261;DHT22;56378;52.404;20.816;2023-12-20T15:02:52;4.20;99.90
69261;DHT22;56378;52.404;20.816;2023-12-20T15:05:21;4.20;99.90
69261;DHT22;56378;52.404;20.816;2023-12-20T15:07:46;4.20;99.90
69261;DHT22;56378;52.404;20.816;2023-12-20T15:10:13;4.10;99.90
69261;DHT22;56378;52.404;20.816;2023-12-20T15:12:39;4.10;99.90
69261;DHT22;56378;52.404;20.816;2023-12-20T15:15:05;4.10;99.90
69261;DHT22;56378;52.404;20.816;2023-12-20T15:17:30;4.10;99.90
69261;DHT22;56378;52.404;20.816;2023-12-20T15:19:56;4.10;99.90
69261;DHT22;56378;52.404;20.816;2023-12-20T15:22:21;4.10;99.90
69261;DHT22;56378;52.404;20.816;2023-12-20T15:24:47;4.10;99.90
69261;DHT22;56378;52.404;20.816;2023-12-20T15:27:13;4.00;99.90